メインページ
METAR-TAF:

METAR-TAF

空港 :

チンギスハーン国際空港

ウランバートル, モンゴル国

緯度: 47-55N, 経度: 106-52E, 海抜: 1306m

現時点の気象観測

当レポートは12分前の03:00(UTC)に作成
北/北西の風 16kt
気温 1°C
湿度 59%
気圧 1016 hPa
視程10km以上
高度3000ftの雲は散在している
高度3300ftの雲は散在している

METAR: ZMUB 210300Z 34008MPS 9999 SCT030 SCT033 01/M06 Q1016 NOSIG RMK QFE655.0 57 MOP

時間: 12:12 (03:12 UTC)

予報

当レポートは4時間32分前の22:40(UTC)に作成
予報は21日の 00時(UTC)から 22日の 06時(UTC)まで有効
北/北西の風 16kt
視程10km以上
高度3000ftの雲はほとんどない, 積乱雲.
高度3300ftの千切れ雲あり
21日の 02時(UTC)から 21日の 04時(UTC)まで徐々に
北/北西の風 17kt
21日の 05時(UTC)から 21日の 18時(UTC)まで一時的に
変向風 16kt
視程: 6000m
高度2300ftの雲はほとんどない
高度2700ftの雲は散在している, 積乱雲.
高度3000ftの千切れ雲あり
にわか雪, 雨, 高い地吹雪
21日の 11時(UTC)から 21日の 13時(UTC)まで徐々に
北西の風 10kt
21日の 15時(UTC)から 21日の 18時(UTC)まで徐々に
変向風 4kt
高度3300ftの雲は散在している
高度10000ftの雲は散在している
22日の 00時(UTC)から 22日の 02時(UTC)まで徐々に
西/北西の風 17kt

TAF: ZMUB 202240Z 2100/2206 34008MPS 9999 FEW030CB BKN033 TX06/2107Z TNM04/2122Z BECMG 2102/2104 34009MPS TEMPO 2105/2118 VRB08MPS 6000 SHSNRA BLSN FEW023 SCT027CB BKN030 BECMG 2111/2113 31005MPS BECMG 2115/2118 VRB02MPS SCT033 SCT100 BECMG 2200/2202 30009MPS

4,000以上の空港の気象観測と天気予報(METAR報とTAF報)

利用可能な観測所は地図上に黄色い丸と赤い丸で示す。

丸の上にカーソルを重ねると観測所名を参照できる。

次にクリックすると気象観測と天気予報を参照できる。

マップの切り替え:黒色「×」印の緑ボタンをクリックして拡大、「-」印の緑ボタンをクリックして縮小、緑色の三角印をクリックして隣りの地図に切り替え


METAR-TAF: